createdAt,value
2022-08-14T00:02:13.524Z,24.40
2022-08-14T00:04:42.300Z,24.40
2022-08-14T00:07:14.215Z,24.40
2022-08-14T00:09:55.510Z,24.30
2022-08-14T00:12:33.714Z,24.30
2022-08-14T00:15:43.916Z,24.20
2022-08-14T00:18:30.652Z,24.20
2022-08-14T00:21:02.784Z,24.20
2022-08-14T00:23:30.237Z,24.20
2022-08-14T00:26:06.260Z,24.10
2022-08-14T00:28:36.050Z,24.10
2022-08-14T00:31:07.805Z,24.00
2022-08-14T00:33:50.645Z,24.00
2022-08-14T00:36:35.630Z,24.00
2022-08-14T00:39:09.258Z,24.00
2022-08-14T00:41:39.010Z,23.90
2022-08-14T00:44:07.381Z,23.90
2022-08-14T00:46:36.577Z,23.90
2022-08-14T00:49:05.080Z,23.90
2022-08-14T00:51:38.070Z,23.90
2022-08-14T00:54:16.875Z,23.90
2022-08-14T00:56:54.765Z,23.90
2022-08-14T00:59:26.448Z,23.90
2022-08-14T01:01:57.440Z,23.80
2022-08-14T01:04:38.310Z,23.80
2022-08-14T01:07:20.581Z,23.80
2022-08-14T01:09:53.063Z,23.70
2022-08-14T01:12:27.065Z,23.70
2022-08-14T01:14:58.579Z,23.70
2022-08-14T01:17:45.955Z,23.70
2022-08-14T01:20:35.988Z,23.60
2022-08-14T01:23:16.283Z,23.60
2022-08-14T01:25:47.834Z,23.50
2022-08-14T01:28:47.314Z,23.50
2022-08-14T01:31:02.011Z,23.50
2022-08-14T01:33:30.289Z,23.40
2022-08-14T01:36:04.730Z,23.40
2022-08-14T01:38:37.359Z,23.40
2022-08-14T01:41:16.165Z,23.40
2022-08-14T01:43:56.345Z,23.40
2022-08-14T01:46:25.219Z,23.30
2022-08-14T01:49:02.136Z,23.30
2022-08-14T01:51:30.089Z,23.30
2022-08-14T01:54:06.659Z,23.30
2022-08-14T01:56:39.744Z,23.30
2022-08-14T01:59:10.188Z,23.20
2022-08-14T02:01:59.084Z,23.20
2022-08-14T02:04:55.872Z,23.20
2022-08-14T02:07:34.291Z,23.20
2022-08-14T02:10:13.215Z,23.10
2022-08-14T02:12:46.204Z,23.10
2022-08-14T02:15:21.823Z,23.10
2022-08-14T02:17:50.221Z,23.10
2022-08-14T02:20:23.591Z,23.10
2022-08-14T02:22:54.761Z,23.10
2022-08-14T02:25:22.474Z,23.10
2022-08-14T02:28:24.608Z,23.10
2022-08-14T02:30:38.539Z,23.00
2022-08-14T02:33:07.308Z,23.00
2022-08-14T02:35:40.568Z,23.00
2022-08-14T02:38:11.728Z,23.00
2022-08-14T02:40:48.814Z,23.00
2022-08-14T02:43:17.389Z,23.00
2022-08-14T02:45:49.786Z,23.00
2022-08-14T02:49:01.710Z,23.00
2022-08-14T02:51:07.207Z,22.90
2022-08-14T02:53:37.336Z,22.90
2022-08-14T02:56:29.672Z,22.90
2022-08-14T02:58:52.868Z,22.90
2022-08-14T03:01:24.137Z,23.00
2022-08-14T03:03:57.957Z,23.00
2022-08-14T03:06:35.146Z,22.90
2022-08-14T03:09:12.930Z,22.90
2022-08-14T03:11:39.787Z,22.80
2022-08-14T03:14:12.323Z,22.70
2022-08-14T03:16:42.785Z,22.80
2022-08-14T03:19:09.830Z,22.70
2022-08-14T03:21:39.771Z,22.60
2022-08-14T03:24:21.467Z,22.50
2022-08-14T03:26:56.122Z,22.50
2022-08-14T03:29:27.659Z,22.50
2022-08-14T03:31:56.652Z,22.50
2022-08-14T03:34:24.865Z,22.40
2022-08-14T03:37:39.325Z,22.40
2022-08-14T03:40:00.463Z,22.30
2022-08-14T03:42:35.661Z,22.40
2022-08-14T03:45:27.317Z,22.30
2022-08-14T03:47:58.443Z,22.30
2022-08-14T03:50:27.993Z,22.30
2022-08-14T03:53:00.603Z,22.30
2022-08-14T03:55:28.520Z,22.20
2022-08-14T03:57:57.960Z,22.20
2022-08-14T04:00:44.313Z,22.10
2022-08-14T04:03:16.715Z,22.10
2022-08-14T04:05:48.723Z,22.00
2022-08-14T04:08:29.278Z,22.00
2022-08-14T04:10:59.380Z,22.00
2022-08-14T04:13:31.530Z,22.00
2022-08-14T04:16:06.888Z,22.00
2022-08-14T04:18:44.383Z,22.00
2022-08-14T04:21:12.582Z,22.00
2022-08-14T04:23:39.876Z,22.00
2022-08-14T04:26:14.540Z,22.00
2022-08-14T04:29:07.248Z,22.00
2022-08-14T04:32:58.631Z,22.00
2022-08-14T04:34:27.168Z,22.00
2022-08-14T04:37:22.032Z,21.90
2022-08-14T04:40:10.245Z,21.90
2022-08-14T04:42:56.309Z,21.90
2022-08-14T04:45:24.470Z,21.80
2022-08-14T04:48:10.800Z,21.90
2022-08-14T04:50:53.808Z,21.80
2022-08-14T04:53:26.275Z,21.80
2022-08-14T04:55:53.757Z,21.80
2022-08-14T04:58:33.051Z,21.80
2022-08-14T05:01:03.794Z,21.80
2022-08-14T05:03:33.269Z,21.80
2022-08-14T05:06:03.097Z,21.80
2022-08-14T05:08:50.471Z,21.80
2022-08-14T05:11:19.437Z,21.80
2022-08-14T05:14:33.108Z,21.90
2022-08-14T05:16:33.751Z,21.90
2022-08-14T05:19:25.084Z,22.00
2022-08-14T05:21:59.260Z,22.00
2022-08-14T05:24:29.227Z,22.10
2022-08-14T05:26:56.197Z,22.10
2022-08-14T05:29:23.738Z,22.10
2022-08-14T05:31:55.888Z,22.10
2022-08-14T05:34:28.872Z,22.20
2022-08-14T05:37:02.109Z,22.20
2022-08-14T05:39:30.108Z,22.30
2022-08-14T05:41:58.410Z,22.30
2022-08-14T05:44:29.644Z,22.30
2022-08-14T05:46:57.696Z,22.30
2022-08-14T05:49:32.596Z,22.40
2022-08-14T05:52:02.179Z,22.40
2022-08-14T05:54:35.306Z,22.40
2022-08-14T05:57:04.594Z,22.50
2022-08-14T05:59:39.324Z,22.50
2022-08-14T06:02:10.054Z,22.60
2022-08-14T06:04:37.577Z,22.60
2022-08-14T06:07:05.070Z,22.60
2022-08-14T06:09:36.093Z,22.70
2022-08-14T06:12:11.765Z,22.70
2022-08-14T06:14:39.320Z,22.70
2022-08-14T06:17:06.800Z,22.80
2022-08-14T06:19:33.565Z,22.80
2022-08-14T06:22:00.329Z,22.90
2022-08-14T06:24:30.807Z,23.00
2022-08-14T06:27:03.874Z,23.00
2022-08-14T06:29:34.729Z,23.10
2022-08-14T06:32:38.779Z,23.10
2022-08-14T06:35:10.819Z,23.20
2022-08-14T06:37:43.037Z,23.30
2022-08-14T06:40:25.468Z,23.30
2022-08-14T06:43:00.300Z,23.40
2022-08-14T06:45:34.023Z,23.40
2022-08-14T06:48:01.317Z,23.50
2022-08-14T06:50:30.003Z,23.50
2022-08-14T06:52:59.035Z,23.60
2022-08-14T06:55:28.258Z,23.60
2022-08-14T06:57:56.500Z,23.60
2022-08-14T07:00:31.100Z,23.70
2022-08-14T07:03:19.114Z,23.80
2022-08-14T07:05:55.752Z,23.90
2022-08-14T07:08:31.008Z,24.00
2022-08-14T07:11:00.694Z,24.10
2022-08-14T07:13:28.616Z,24.10
2022-08-14T07:16:00.558Z,24.20
2022-08-14T07:18:30.075Z,24.30
2022-08-14T07:20:59.547Z,24.30
2022-08-14T07:23:27.339Z,24.40
2022-08-14T07:25:56.622Z,24.50
2022-08-14T07:28:35.828Z,24.50
2022-08-14T07:31:12.357Z,24.60
2022-08-14T07:33:49.930Z,24.80
2022-08-14T07:36:27.651Z,24.80
2022-08-14T07:39:02.761Z,24.90
2022-08-14T07:41:35.877Z,25.00
2022-08-14T07:44:22.471Z,25.10
2022-08-14T07:46:50.463Z,25.20
2022-08-14T07:49:18.284Z,25.30
2022-08-14T07:51:49.413Z,25.50
2022-08-14T07:54:23.459Z,25.50
2022-08-14T07:57:11.741Z,25.60
2022-08-14T07:59:42.408Z,25.80
2022-08-14T08:02:19.557Z,25.90
2022-08-14T08:04:54.809Z,26.00
2022-08-14T08:07:24.738Z,26.20
2022-08-14T08:09:58.167Z,26.50
2022-08-14T08:12:29.608Z,26.60
2022-08-14T08:15:05.867Z,26.70
2022-08-14T08:17:38.979Z,26.90
2022-08-14T08:20:15.877Z,27.00
2022-08-14T08:22:47.965Z,27.00
2022-08-14T08:25:17.923Z,27.10
2022-08-14T08:28:19.882Z,27.10
2022-08-14T08:31:00.114Z,27.20
2022-08-14T08:33:37.459Z,27.30
2022-08-14T08:36:07.918Z,27.30
2022-08-14T08:39:17.743Z,27.40
2022-08-14T08:41:21.711Z,27.40
2022-08-14T08:43:48.412Z,27.40
2022-08-14T08:46:21.744Z,27.50
2022-08-14T08:48:54.016Z,27.70
2022-08-14T08:51:30.845Z,27.70
2022-08-14T08:54:04.005Z,27.80
2022-08-14T08:56:41.467Z,27.90
2022-08-14T08:59:31.525Z,28.10
2022-08-14T09:02:05.341Z,28.30
2022-08-14T09:04:53.659Z,28.50
2022-08-14T09:07:27.024Z,28.70
2022-08-14T09:09:59.408Z,28.80
2022-08-14T09:12:32.381Z,28.90
2022-08-14T09:15:12.048Z,28.90
2022-08-14T09:17:41.671Z,28.90
2022-08-14T09:20:11.772Z,29.00
2022-08-14T09:22:42.642Z,29.00
2022-08-14T09:25:19.961Z,29.10
2022-08-14T09:28:06.462Z,29.00
2022-08-14T09:30:36.786Z,29.00
2022-08-14T09:33:31.594Z,29.10
2022-08-14T09:36:36.802Z,29.20
2022-08-14T09:39:23.552Z,29.30
2022-08-14T09:42:35.839Z,29.40
2022-08-14T09:45:12.842Z,29.50
2022-08-14T09:47:53.471Z,29.70
2022-08-14T09:50:44.268Z,29.80
2022-08-14T09:53:18.061Z,30.00
2022-08-14T09:55:45.498Z,30.00
2022-08-14T09:58:19.968Z,30.10
2022-08-14T10:00:59.384Z,30.20
2022-08-14T10:03:35.266Z,30.30
2022-08-14T10:06:08.697Z,30.30
2022-08-14T10:08:54.209Z,30.30
2022-08-14T10:11:35.079Z,30.50
2022-08-14T10:14:34.597Z,30.50
2022-08-14T10:17:05.987Z,30.70
2022-08-14T10:19:35.372Z,30.80
2022-08-14T10:23:11.783Z,30.90
2022-08-14T10:24:54.824Z,30.90
2022-08-14T10:27:26.634Z,31.00
2022-08-14T10:30:00.774Z,31.00
2022-08-14T10:32:40.214Z,31.10
2022-08-14T10:35:16.586Z,31.10
2022-08-14T10:37:50.045Z,31.10
2022-08-14T10:40:43.788Z,31.10
2022-08-14T10:43:22.724Z,31.20
2022-08-14T10:45:59.825Z,31.30
2022-08-14T10:49:04.330Z,31.40
2022-08-14T10:51:36.084Z,31.50
2022-08-14T10:54:16.551Z,31.50
2022-08-14T10:56:57.271Z,31.50
2022-08-14T10:59:36.119Z,31.60
2022-08-14T11:02:45.103Z,31.70
2022-08-14T11:05:13.363Z,31.70
2022-08-14T11:07:56.544Z,31.60
2022-08-14T11:10:27.848Z,31.70
2022-08-14T11:12:57.898Z,31.80
2022-08-14T11:15:28.971Z,32.00
2022-08-14T11:18:01.195Z,32.00
2022-08-14T11:20:30.027Z,32.00
2022-08-14T11:23:00.826Z,32.00
2022-08-14T11:25:43.839Z,32.10
2022-08-14T11:28:46.175Z,32.10
2022-08-14T11:31:16.730Z,32.20
2022-08-14T11:33:43.725Z,32.20
2022-08-14T11:36:17.876Z,32.20
2022-08-14T11:38:46.305Z,32.10
2022-08-14T11:41:17.238Z,32.10
2022-08-14T11:43:57.704Z,32.10
2022-08-14T11:46:30.772Z,32.00
2022-08-14T11:49:05.446Z,32.10
2022-08-14T11:51:36.023Z,32.10
2022-08-14T11:54:09.706Z,32.10
2022-08-14T11:56:43.551Z,31.90
2022-08-14T11:59:18.006Z,31.80
2022-08-14T12:01:48.826Z,31.80
2022-08-14T12:04:31.945Z,31.90
2022-08-14T12:07:01.182Z,32.20
2022-08-14T12:09:36.305Z,32.40
2022-08-14T12:12:35.908Z,32.50
2022-08-14T12:15:05.396Z,32.60
2022-08-14T12:17:49.242Z,32.90
2022-08-14T12:20:29.967Z,33.10
2022-08-14T12:23:00.739Z,33.40
2022-08-14T12:25:28.130Z,33.50
2022-08-14T12:28:01.383Z,33.70
2022-08-14T12:30:42.789Z,34.00
2022-08-14T12:33:33.074Z,33.90
2022-08-14T12:36:05.396Z,34.10
2022-08-14T12:38:45.240Z,34.40
2022-08-14T12:41:22.039Z,34.50
2022-08-14T12:43:53.473Z,34.80
2022-08-14T12:46:40.991Z,35.00
2022-08-14T12:49:17.721Z,35.00
2022-08-14T12:51:59.610Z,35.10
2022-08-14T12:54:29.131Z,35.10
2022-08-14T12:57:19.342Z,35.50
2022-08-14T12:59:50.624Z,35.70
2022-08-14T13:02:26.970Z,35.70
2022-08-14T13:04:57.948Z,35.70
2022-08-14T13:07:32.037Z,35.90
2022-08-14T13:10:46.033Z,35.80
2022-08-14T13:13:13.296Z,35.80
2022-08-14T13:15:44.357Z,35.50
2022-08-14T13:18:14.504Z,35.40
2022-08-14T13:20:51.841Z,35.70
2022-08-14T13:23:36.199Z,35.70
2022-08-14T13:26:04.926Z,36.00
2022-08-14T13:28:34.575Z,36.10
2022-08-14T13:31:11.101Z,36.20
2022-08-14T13:33:40.505Z,36.60
2022-08-14T13:36:08.913Z,37.20
2022-08-14T13:38:36.941Z,37.50
2022-08-14T13:41:04.258Z,37.60
2022-08-14T13:43:36.915Z,38.20
2022-08-14T13:46:19.311Z,38.60
2022-08-14T13:48:46.482Z,38.80
2022-08-14T13:51:16.473Z,39.10
2022-08-14T13:54:06.909Z,39.30
2022-08-14T13:56:40.579Z,39.70
2022-08-14T13:59:08.485Z,39.90
2022-08-14T14:01:43.930Z,39.60
2022-08-14T14:04:19.213Z,38.50
2022-08-14T14:06:49.893Z,37.70
2022-08-14T14:09:32.466Z,38.20
2022-08-14T14:12:08.023Z,37.60
2022-08-14T14:14:56.155Z,36.90
2022-08-14T14:17:25.030Z,37.50
2022-08-14T14:19:57.906Z,38.00
2022-08-14T14:22:36.097Z,38.40
2022-08-14T14:25:19.378Z,38.30
2022-08-14T14:27:51.170Z,37.50
2022-08-14T14:30:29.393Z,37.00
2022-08-14T14:33:44.173Z,36.40
2022-08-14T14:36:02.007Z,35.90
2022-08-14T14:38:34.018Z,35.40
2022-08-14T14:41:03.737Z,35.00
2022-08-14T14:43:38.957Z,34.80
2022-08-14T14:46:09.512Z,34.50
2022-08-14T14:48:46.685Z,34.20
2022-08-14T14:51:21.965Z,34.10
2022-08-14T14:53:49.140Z,34.00
2022-08-14T14:56:47.552Z,34.00
2022-08-14T14:59:02.761Z,34.00
2022-08-14T15:01:34.604Z,33.80
2022-08-14T15:04:04.147Z,33.70
2022-08-14T15:06:35.125Z,33.60
2022-08-14T15:09:04.716Z,33.40
2022-08-14T15:11:32.368Z,33.10
2022-08-14T15:14:00.555Z,33.10
2022-08-14T15:16:28.645Z,33.10
2022-08-14T15:18:55.621Z,33.20
2022-08-14T15:21:22.957Z,33.20
2022-08-14T15:23:51.511Z,33.30
2022-08-14T15:26:23.944Z,33.40
2022-08-14T15:29:05.168Z,33.30
2022-08-14T15:31:36.617Z,33.40
2022-08-14T15:34:43.155Z,33.40
2022-08-14T15:37:12.797Z,33.50
2022-08-14T15:39:41.334Z,33.30
2022-08-14T15:42:15.673Z,33.30
2022-08-14T15:44:58.316Z,33.30
2022-08-14T15:47:30.331Z,33.30
2022-08-14T15:50:00.267Z,33.30
2022-08-14T15:52:34.616Z,33.40
2022-08-14T15:55:04.782Z,33.30
2022-08-14T15:57:32.024Z,33.30
2022-08-14T16:00:40.736Z,33.30
2022-08-14T16:03:08.743Z,33.30
2022-08-14T16:05:38.262Z,33.40
2022-08-14T16:08:29.409Z,33.30
2022-08-14T16:10:56.745Z,33.30
2022-08-14T16:13:41.088Z,33.20
2022-08-14T16:16:49.813Z,33.10
2022-08-14T16:19:10.028Z,33.10
2022-08-14T16:21:39.976Z,33.10
2022-08-14T16:24:27.921Z,33.10
2022-08-14T16:27:00.612Z,33.10
2022-08-14T16:29:30.231Z,33.10
2022-08-14T16:32:01.535Z,33.00
2022-08-14T16:37:18.464Z,32.90
2022-08-14T16:39:47.508Z,32.90
2022-08-14T16:43:02.571Z,32.90
2022-08-14T16:45:02.933Z,32.90
2022-08-14T16:47:35.210Z,32.90
2022-08-14T16:50:11.200Z,32.80
2022-08-14T16:52:44.440Z,32.80
2022-08-14T16:55:13.885Z,32.70
2022-08-14T16:57:54.988Z,32.60
2022-08-14T17:00:44.207Z,32.60
2022-08-14T17:03:15.317Z,32.60
2022-08-14T17:05:47.134Z,32.50
2022-08-14T17:08:33.051Z,32.50
2022-08-14T17:11:10.894Z,32.50
2022-08-14T17:13:57.854Z,32.40
2022-08-14T17:16:29.994Z,32.20
2022-08-14T17:19:01.712Z,32.20
2022-08-14T17:21:41.059Z,32.20
2022-08-14T17:24:56.588Z,32.10
2022-08-14T17:27:04.071Z,32.00
2022-08-14T17:29:33.913Z,31.90
2022-08-14T17:32:28.032Z,31.90
2022-08-14T17:35:01.627Z,31.80
2022-08-14T17:37:45.297Z,31.80
2022-08-14T17:40:20.850Z,31.80
2022-08-14T17:42:51.273Z,31.70
2022-08-14T17:45:28.641Z,31.60
2022-08-14T17:49:14.621Z,31.60
2022-08-14T17:51:14.192Z,31.50
2022-08-14T17:53:52.591Z,31.50
2022-08-14T17:56:20.738Z,31.30
2022-08-14T17:58:49.417Z,31.30
2022-08-14T18:01:23.613Z,31.30
2022-08-14T18:03:56.330Z,31.20
2022-08-14T18:06:39.739Z,31.20
2022-08-14T18:09:25.347Z,31.10
2022-08-14T18:12:03.749Z,31.00
2022-08-14T18:14:32.047Z,31.00
2022-08-14T18:17:01.537Z,30.80
2022-08-14T18:19:31.495Z,30.80
2022-08-14T18:22:05.648Z,30.80
2022-08-14T18:24:51.105Z,30.70
2022-08-14T18:27:23.062Z,30.60
2022-08-14T18:29:56.729Z,30.60
2022-08-14T18:32:27.595Z,30.50
2022-08-14T18:35:11.048Z,30.50
2022-08-14T18:37:40.986Z,30.40
2022-08-14T18:40:18.075Z,30.40
2022-08-14T18:43:03.295Z,30.30
2022-08-14T18:45:33.881Z,30.30
2022-08-14T18:48:16.513Z,30.20
2022-08-14T18:50:59.239Z,30.10
2022-08-14T18:53:34.220Z,30.10
2022-08-14T18:56:09.753Z,30.10
2022-08-14T18:58:48.282Z,30.00
2022-08-14T19:01:28.811Z,29.90
2022-08-14T19:03:59.086Z,29.90
2022-08-14T19:06:41.566Z,29.90
2022-08-14T19:09:50.504Z,29.80
2022-08-14T19:12:58.430Z,29.80
2022-08-14T19:15:32.700Z,29.80
2022-08-14T19:18:10.638Z,29.80
2022-08-14T19:20:52.918Z,29.70
2022-08-14T19:23:43.872Z,29.60
2022-08-14T19:26:35.874Z,29.60
2022-08-14T19:29:20.209Z,29.50
2022-08-14T19:31:55.791Z,29.50
2022-08-14T19:34:55.435Z,29.50
2022-08-14T19:37:52.654Z,29.40
2022-08-14T19:40:34.097Z,29.30
2022-08-14T19:43:06.373Z,29.30
2022-08-14T19:45:34.285Z,29.20
2022-08-14T19:48:02.316Z,29.20
2022-08-14T19:50:38.990Z,29.10
2022-08-14T19:53:12.011Z,29.10
2022-08-14T19:55:56.346Z,29.00
2022-08-14T19:58:28.061Z,28.90
2022-08-14T20:00:58.150Z,28.90
2022-08-14T20:03:25.698Z,28.90
2022-08-14T20:06:12.958Z,28.90
2022-08-14T20:09:05.806Z,28.90
2022-08-14T20:11:42.997Z,28.90
2022-08-14T20:14:27.984Z,28.80
2022-08-14T20:17:06.422Z,28.80
2022-08-14T20:19:37.407Z,28.80
2022-08-14T20:22:36.726Z,28.70
2022-08-14T20:25:18.211Z,28.70
2022-08-14T20:27:59.415Z,28.60
2022-08-14T20:30:34.328Z,28.60
2022-08-14T20:33:07.379Z,28.60
2022-08-14T20:35:44.343Z,28.50
2022-08-14T20:38:33.681Z,28.30
2022-08-14T20:41:06.483Z,28.30
2022-08-14T20:43:55.712Z,28.20
2022-08-14T20:46:38.390Z,28.20
2022-08-14T20:49:08.956Z,28.10
2022-08-14T20:51:43.369Z,28.10
2022-08-14T20:54:21.842Z,28.10
2022-08-14T20:57:15.554Z,28.10
2022-08-14T20:59:53.630Z,28.00
2022-08-14T21:02:38.378Z,28.00
2022-08-14T21:05:19.737Z,27.90
2022-08-14T21:07:51.420Z,27.90
2022-08-14T21:10:33.149Z,27.80
2022-08-14T21:13:27.221Z,27.80
2022-08-14T21:15:57.635Z,27.80
2022-08-14T21:18:29.718Z,27.70
2022-08-14T21:20:58.498Z,27.60
2022-08-14T21:23:32.586Z,27.60
2022-08-14T21:26:00.472Z,27.50
2022-08-14T21:28:29.638Z,27.50
2022-08-14T21:30:58.532Z,27.50
2022-08-14T21:33:25.754Z,27.40
2022-08-14T21:35:55.982Z,27.40
2022-08-14T21:38:33.668Z,27.40
2022-08-14T21:41:42.385Z,27.40
2022-08-14T21:44:17.652Z,27.30
2022-08-14T21:46:55.812Z,27.20
2022-08-14T21:49:34.088Z,27.20
2022-08-14T21:52:51.079Z,27.20
2022-08-14T21:55:08.890Z,27.20
2022-08-14T21:58:46.010Z,27.10
2022-08-14T22:00:35.111Z,27.10
2022-08-14T22:03:05.983Z,27.00
2022-08-14T22:05:33.157Z,27.00
2022-08-14T22:08:03.139Z,27.00
2022-08-14T22:10:33.804Z,26.90
2022-08-14T22:13:01.758Z,26.90
2022-08-14T22:15:30.273Z,26.90
2022-08-14T22:17:58.535Z,26.90
2022-08-14T22:20:31.379Z,26.80
2022-08-14T22:23:02.911Z,26.80
2022-08-14T22:25:33.279Z,26.80
2022-08-14T22:28:06.162Z,26.70
2022-08-14T22:30:37.622Z,26.70
2022-08-14T22:33:06.529Z,26.70
2022-08-14T22:35:36.975Z,26.70
2022-08-14T22:38:35.601Z,26.60
2022-08-14T22:41:25.582Z,26.60
2022-08-14T22:43:40.519Z,26.60
2022-08-14T22:46:14.687Z,26.60
2022-08-14T22:48:44.986Z,26.50
2022-08-14T22:51:14.844Z,26.60
2022-08-14T22:53:43.519Z,26.50
2022-08-14T22:56:21.056Z,26.50
2022-08-14T22:58:54.233Z,26.50
2022-08-14T23:01:55.046Z,26.50
2022-08-14T23:04:35.906Z,26.50
2022-08-14T23:07:21.770Z,26.40
2022-08-14T23:09:56.363Z,26.30
2022-08-14T23:12:29.714Z,26.20
2022-08-14T23:14:58.389Z,26.20
2022-08-14T23:17:26.583Z,26.10
2022-08-14T23:19:53.326Z,26.10
2022-08-14T23:22:26.155Z,26.00
2022-08-14T23:24:56.712Z,25.90
2022-08-14T23:27:31.864Z,25.80
2022-08-14T23:30:33.901Z,25.80
2022-08-14T23:33:02.950Z,25.80
2022-08-14T23:35:33.225Z,25.80
2022-08-14T23:38:01.906Z,25.70
2022-08-14T23:40:30.727Z,25.70
2022-08-14T23:43:08.666Z,25.60
2022-08-14T23:45:39.378Z,25.60
2022-08-14T23:48:12.416Z,25.60
2022-08-14T23:50:41.290Z,25.60
2022-08-14T23:53:28.184Z,25.60
2022-08-14T23:56:08.834Z,25.60
2022-08-14T23:58:37.052Z,25.50
